Time;durP1;ratioP1;P1;durP2;ratioP2;P2;SDS_P1;SDS_P2;PMS_P1;PMS_P2;Temp;Humidity;BMP_temperature;BMP_pressure;BME280_temperature;BME280_humidity;BME280_pressure;Samples;Min_cycle;Max_cycle;Signal;HPM_P1;HPM_P2
2022/01/02 05:01:22;;;;;;;17.50;5.72;;;11.80;99.90;;;;;;5546098;23;20445;-80
2022/01/02 05:03:47;;;;;;;17.95;5.97;;;11.80;99.90;;;;;;4936927;29;20044;-81
2022/01/02 05:06:13;;;;;;;17.33;5.85;;;11.80;99.90;;;;;;4936664;29;20481;-81
2022/01/02 05:08:43;;;;;;;16.52;5.03;;;11.80;99.90;;;;;;4936874;29;20035;-81
2022/01/02 05:11:08;;;;;;;14.80;5.40;;;11.80;99.90;;;;;;4936828;29;20046;-81
2022/01/02 05:13:34;;;;;;;19.05;5.60;;;11.80;99.90;;;;;;4936764;29;20114;-80
2022/01/02 05:15:59;;;;;;;15.27;4.72;;;11.80;99.90;;;;;;4920704;29;20442;-81
2022/01/02 05:18:25;;;;;;;17.90;5.78;;;11.70;99.90;;;;;;4936492;29;20039;-82
2022/01/02 05:20:51;;;;;;;19.48;6.22;;;11.80;99.90;;;;;;4936578;29;20047;-81
2022/01/02 05:23:17;;;;;;;18.60;5.32;;;11.80;99.90;;;;;;4936368;29;20044;-80
2022/01/02 05:25:43;;;;;;;22.13;5.97;;;11.80;99.90;;;;;;4936571;29;20406;-81
2022/01/02 05:28:12;;;;;;;23.23;5.78;;;11.80;99.90;;;;;;4936802;29;20040;-81
2022/01/02 05:30:39;;;;;;;16.05;5.28;;;11.80;99.90;;;;;;4937603;29;20044;-81
2022/01/02 05:33:04;;;;;;;17.90;5.60;;;11.80;99.90;;;;;;4920330;29;20042;-82
2022/01/02 05:35:31;;;;;;;16.75;4.88;;;11.80;99.90;;;;;;4937711;29;20397;-81
2022/01/02 05:37:58;;;;;;;19.00;5.15;;;11.80;99.90;;;;;;4936119;29;20058;-80
2022/01/02 05:40:24;;;;;;;16.98;5.15;;;11.80;99.90;;;;;;4937469;29;20051;-80
2022/01/02 05:42:50;;;;;;;19.42;5.22;;;11.80;99.90;;;;;;4935940;29;20043;-80
2022/01/02 05:45:15;;;;;;;17.00;5.35;;;11.80;99.90;;;;;;4937507;29;20045;-81
2022/01/02 05:47:41;;;;;;;17.48;5.85;;;11.80;99.90;;;;;;4920264;29;20043;-81
2022/01/02 05:50:08;;;;;;;20.35;5.07;;;11.90;99.90;;;;;;4935848;29;20485;-82
2022/01/02 05:52:34;;;;;;;16.73;4.82;;;11.80;99.90;;;;;;4935987;29;20048;-81
2022/01/02 05:55:00;;;;;;;13.95;4.53;;;11.90;99.90;;;;;;4936829;29;20438;-81
2022/01/02 05:57:25;;;;;;;19.92;5.18;;;11.90;99.90;;;;;;4937570;29;20031;-81
2022/01/02 05:59:51;;;;;;;22.90;5.30;;;11.90;99.90;;;;;;4936039;29;20500;-82
2022/01/02 06:02:17;;;;;;;19.10;4.70;;;11.90;99.90;;;;;;4935948;29;20134;-82
2022/01/02 06:04:42;;;;;;;17.50;5.47;;;11.90;99.90;;;;;;4935934;29;20052;-81
2022/01/02 06:07:09;;;;;;;16.02;4.63;;;11.90;99.90;;;;;;4919327;29;20482;-82
2022/01/02 06:09:34;;;;;;;16.13;5.20;;;11.90;99.90;;;;;;4935857;29;20050;-80
2022/01/02 06:12:00;;;;;;;14.70;4.70;;;11.90;99.90;;;;;;4935803;29;20039;-82
2022/01/02 06:14:26;;;;;;;15.85;4.65;;;12.00;99.90;;;;;;4935524;29;20098;-81
2022/01/02 06:16:52;;;;;;;18.75;4.72;;;12.00;99.90;;;;;;4935755;29;20091;-82
2022/01/02 06:19:17;;;;;;;15.77;4.60;;;11.90;99.90;;;;;;4935535;29;20047;-82
2022/01/02 06:21:43;;;;;;;12.20;4.05;;;11.90;99.90;;;;;;4936600;29;20039;-82
2022/01/02 06:24:08;;;;;;;15.85;4.65;;;12.00;99.90;;;;;;4936315;29;20040;-83
2022/01/02 06:26:34;;;;;;;18.63;4.63;;;12.00;99.90;;;;;;4919615;29;20099;-83
2022/01/02 06:29:03;;;;;;;20.13;4.80;;;12.00;99.90;;;;;;4935416;29;20044;-82
2022/01/02 06:31:29;;;;;;;14.98;4.38;;;12.00;99.90;;;;;;4935365;29;20044;-84
2022/01/02 06:33:55;;;;;;;11.23;3.90;;;12.00;99.90;;;;;;4935216;29;20051;-83
2022/01/02 06:36:21;;;;;;;18.23;5.03;;;12.00;99.90;;;;;;4935439;29;20478;-82
2022/01/02 06:38:46;;;;;;;17.15;4.72;;;12.00;99.90;;;;;;4935080;29;20099;-82
2022/01/02 06:41:12;;;;;;;20.20;4.90;;;12.00;99.90;;;;;;4919372;29;20047;-82
2022/01/02 06:43:39;;;;;;;10.68;4.03;;;12.00;99.90;;;;;;4934934;29;20102;-81
2022/01/02 06:46:06;;;;;;;16.55;4.07;;;12.10;99.90;;;;;;4935001;29;20043;-81
2022/01/02 06:48:32;;;;;;;13.00;4.40;;;12.10;99.90;;;;;;4936197;29;20039;-83
2022/01/02 06:50:58;;;;;;;13.93;4.57;;;12.00;99.90;;;;;;4936222;29;20050;-82
2022/01/02 06:53:23;;;;;;;12.00;3.70;;;12.10;99.90;;;;;;4935044;29;20055;-82
2022/01/02 06:55:49;;;;;;;15.57;4.30;;;12.10;99.90;;;;;;4935406;29;20039;-82
2022/01/02 06:58:14;;;;;;;15.25;4.65;;;12.10;99.90;;;;;;4934883;29;20091;-82
2022/01/02 07:00:41;;;;;;;11.65;3.80;;;12.10;99.90;;;;;;4936208;29;20075;-82
2022/01/02 07:03:07;;;;;;;12.23;3.63;;;12.10;99.90;;;;;;4936212;29;20032;-82
2022/01/02 07:05:32;;;;;;;11.57;3.80;;;12.10;99.90;;;;;;4935152;29;20047;-82
2022/01/02 07:07:58;;;;;;;12.15;4.25;;;12.10;99.90;;;;;;4934813;29;20107;-81
2022/01/02 07:10:24;;;;;;;9.82;3.78;;;12.10;99.90;;;;;;4934835;29;20493;-81
2022/01/02 07:12:49;;;;;;;12.73;4.60;;;12.10;99.90;;;;;;4934775;29;20068;-81
2022/01/02 07:15:15;;;;;;;13.98;4.13;;;12.00;99.90;;;;;;4919090;29;20054;-80
2022/01/02 07:17:41;;;;;;;11.52;3.90;;;12.00;99.90;;;;;;4935003;29;20035;-82
2022/01/02 07:20:08;;;;;;;12.50;4.40;;;12.00;99.90;;;;;;4934712;29;20509;-82
2022/01/02 07:22:34;;;;;;;17.17;5.43;;;11.90;99.90;;;;;;4934619;29;20051;-82
2022/01/02 07:25:00;;;;;;;11.27;3.90;;;11.90;99.90;;;;;;4918812;29;20406;-82
2022/01/02 07:27:26;;;;;;;11.35;4.00;;;11.90;99.90;;;;;;4934693;29;20132;-83
2022/01/02 07:29:51;;;;;;;13.20;4.40;;;11.80;99.90;;;;;;4934763;29;20169;-82
2022/01/02 07:32:17;;;;;;;12.00;4.40;;;11.80;99.90;;;;;;4934504;29;20099;-82
2022/01/02 07:34:43;;;;;;;13.82;4.88;;;11.90;99.90;;;;;;4934546;29;20040;-83
2022/01/02 07:37:10;;;;;;;16.35;4.50;;;11.80;99.90;;;;;;4934412;29;20101;-83
2022/01/02 07:39:36;;;;;;;15.85;4.72;;;11.80;99.90;;;;;;4934707;29;20508;-83
2022/01/02 07:42:02;;;;;;;11.07;4.18;;;11.80;99.90;;;;;;4934364;29;20075;-83
2022/01/02 07:44:28;;;;;;;11.18;4.35;;;11.70;99.90;;;;;;4935954;29;20123;-82
2022/01/02 07:46:53;;;;;;;13.63;5.07;;;11.80;99.90;;;;;;4935662;29;20084;-81
2022/01/02 07:49:19;;;;;;;13.98;4.72;;;11.80;99.90;;;;;;4934223;29;20044;-82
2022/01/02 07:51:44;;;;;;;11.98;4.43;;;11.80;99.90;;;;;;4918465;29;20042;-80
2022/01/02 07:54:16;;;;;;;13.57;5.13;;;11.80;99.90;;;;;;4934902;29;20118;-80
2022/01/02 07:56:42;;;;;;;13.45;4.20;;;11.80;99.90;;;;;;4934859;29;20094;-80
2022/01/02 07:59:08;;;;;;;13.32;5.28;;;11.80;99.90;;;;;;4934302;29;20519;-82
2022/01/02 08:01:34;;;;;;;11.98;5.40;;;11.80;99.90;;;;;;4935294;29;20050;-82
2022/01/02 08:03:59;;;;;;;13.93;4.45;;;11.80;99.90;;;;;;4934315;29;20043;-82
2022/01/02 08:06:25;;;;;;;11.85;4.72;;;11.80;99.90;;;;;;4934296;29;20047;-82
2022/01/02 08:08:51;;;;;;;12.40;5.38;;;11.70;99.90;;;;;;4934436;29;20554;-81
2022/01/02 08:11:17;;;;;;;14.10;5.10;;;11.80;99.90;;;;;;4934228;29;20040;-80
2022/01/02 08:13:46;;;;;;;12.60;4.85;;;11.70;99.90;;;;;;4934118;29;20082;-82
2022/01/02 08:16:12;;;;;;;18.10;4.82;;;11.70;99.90;;;;;;4934139;29;20043;-82
2022/01/02 08:18:39;;;;;;;13.18;5.30;;;11.70;99.90;;;;;;4918518;29;20047;-82
2022/01/02 08:21:04;;;;;;;12.65;5.40;;;11.70;99.90;;;;;;4935194;29;20119;-82
2022/01/02 08:23:30;;;;;;;12.98;5.05;;;11.60;99.90;;;;;;4934087;29;20039;-82
2022/01/02 08:25:56;;;;;;;12.55;4.75;;;11.70;99.90;;;;;;4933972;29;20047;-81
2022/01/02 08:28:21;;;;;;;11.88;5.10;;;11.70;99.90;;;;;;4933928;29;20039;-81
2022/01/02 08:30:47;;;;;;;14.02;5.53;;;11.60;99.90;;;;;;4921509;29;20495;-80
2022/01/02 08:33:14;;;;;;;10.60;4.50;;;11.60;99.90;;;;;;4937488;29;20098;-81
2022/01/02 08:35:41;;;;;;;12.77;4.88;;;11.70;99.90;;;;;;4937512;29;20106;-81
2022/01/02 08:38:07;;;;;;;16.90;4.75;;;11.70;99.90;;;;;;4921545;29;20079;-81
2022/01/02 08:40:33;;;;;;;14.55;4.68;;;11.70;99.90;;;;;;4938594;29;20106;-81
2022/01/02 08:42:58;;;;;;;12.93;5.40;;;11.70;99.90;;;;;;4937300;29;20046;-80
2022/01/02 08:45:24;;;;;;;11.77;5.13;;;11.60;99.90;;;;;;4937263;29;20078;-81
2022/01/02 08:47:50;;;;;;;12.88;4.60;;;11.70;99.90;;;;;;4937078;29;20051;-81
2022/01/02 08:50:16;;;;;;;11.05;4.90;;;11.60;99.90;;;;;;4938439;29;20059;-83
2022/01/02 08:52:41;;;;;;;13.00;5.32;;;11.60;99.90;;;;;;4937208;29;20478;-81
2022/01/02 08:55:07;;;;;;;10.38;4.75;;;11.50;99.90;;;;;;4921018;29;20044;-80
2022/01/02 08:57:33;;;;;;;13.68;4.25;;;11.50;99.90;;;;;;4936828;29;20485;-81
2022/01/02 08:59:59;;;;;;;13.02;4.72;;;11.50;99.90;;;;;;4937128;29;20048;-82
2022/01/02 09:02:24;;;;;;;12.48;4.50;;;11.50;99.90;;;;;;4937846;29;20091;-83
2022/01/02 09:04:50;;;;;;;16.10;4.53;;;11.50;99.90;;;;;;4936512;29;20043;-78
2022/01/02 09:07:16;;;;;;;14.23;5.13;;;11.50;99.90;;;;;;4937854;29;20082;-81
2022/01/02 09:09:41;;;;;;;13.48;5.22;;;11.50;99.90;;;;;;4938269;29;20075;-80
2022/01/02 09:12:09;;;;;;;13.23;4.63;;;11.50;99.90;;;;;;4936804;29;20410;-81
2022/01/02 09:14:35;;;;;;;17.10;4.55;;;11.50;99.90;;;;;;4920859;29;20430;-82
2022/01/02 09:17:01;;;;;;;10.80;4.80;;;11.60;99.90;;;;;;4952399;29;20040;-80
2022/01/02 09:19:26;;;;;;;16.05;4.82;;;11.60;99.90;;;;;;4920475;29;20044;-81
2022/01/02 09:21:52;;;;;;;12.88;4.25;;;11.70;99.90;;;;;;4921069;29;20048;-81
2022/01/02 09:24:17;;;;;;;12.18;5.13;;;11.70;99.90;;;;;;4936318;29;20074;-81
2022/01/02 09:26:43;;;;;;;12.65;4.88;;;11.80;99.90;;;;;;4936411;29;20074;-81
2022/01/02 09:29:09;;;;;;;11.27;4.43;;;11.80;99.90;;;;;;4936383;29;20478;-81
2022/01/02 09:31:35;;;;;;;9.55;5.05;;;11.90;99.90;;;;;;4936231;29;20545;-82
2022/01/02 09:34:00;;;;;;;13.10;5.13;;;11.90;99.90;;;;;;4936147;29;20124;-81
2022/01/02 09:36:26;;;;;;;13.90;5.40;;;12.00;99.90;;;;;;4936095;29;20039;-81
2022/01/02 09:38:54;;;;;;;13.48;5.60;;;12.00;99.90;;;;;;4936456;29;20482;-80
2022/01/02 09:41:20;;;;;;;12.60;5.45;;;12.00;99.90;;;;;;4935191;29;20071;-80
2022/01/02 09:43:50;;;;;;;13.85;6.13;;;12.00;99.90;;;;;;4936186;29;20439;-79
2022/01/02 09:46:23;;;;;;;11.75;5.47;;;12.10;99.90;;;;;;4936875;29;20533;-80
2022/01/02 09:48:50;;;;;;;14.27;5.60;;;12.10;99.90;;;;;;4951771;29;20039;-80
2022/01/02 09:51:24;;;;;;;13.82;5.65;;;12.10;99.90;;;;;;4936208;29;20514;-86
2022/01/02 09:53:51;;;;;;;15.77;5.35;;;12.10;99.90;;;;;;4935981;29;20040;-81
2022/01/02 09:56:17;;;;;;;13.23;5.07;;;12.10;99.90;;;;;;4936089;29;20451;-82
2022/01/02 09:58:44;;;;;;;12.05;5.47;;;12.10;99.90;;;;;;4935987;29;20075;-83
2022/01/02 10:01:18;;;;;;;11.68;5.75;;;12.20;99.90;;;;;;4935796;29;20039;-83
2022/01/02 10:03:47;;;;;;;10.32;4.85;;;12.20;99.90;;;;;;4935488;29;20043;-84
2022/01/02 10:06:13;;;;;;;12.23;5.25;;;12.20;99.90;;;;;;4937208;29;20043;-84
2022/01/02 10:08:39;;;;;;;12.10;4.97;;;12.20;99.90;;;;;;4935627;29;20052;-83
2022/01/02 10:11:16;;;;;;;11.02;5.85;;;12.30;99.90;;;;;;4935543;29;20135;-85
2022/01/02 10:13:54;;;;;;;11.77;5.68;;;12.20;99.90;;;;;;4937025;29;20086;-80
2022/01/02 10:16:34;;;;;;;13.45;5.45;;;12.20;99.90;;;;;;4926998;29;20052;-81
2022/01/02 10:19:00;;;;;;;13.73;5.60;;;12.20;99.90;;;;;;4932780;29;20043;-80
2022/01/02 10:21:38;;;;;;;10.50;5.53;;;12.30;99.90;;;;;;4951092;29;20043;-81
2022/01/02 10:24:36;;;;;;;12.25;5.50;;;12.30;99.90;;;;;;4943223;29;20055;-81
2022/01/02 10:27:08;;;;;;;11.68;5.20;;;12.30;99.90;;;;;;4937047;29;20155;-81
2022/01/02 10:29:41;;;;;;;11.10;5.30;;;12.30;99.90;;;;;;4937230;29;20052;-82
2022/01/02 10:32:38;;;;;;;11.40;5.28;;;12.30;99.90;;;;;;4936471;29;20051;-81
2022/01/02 10:35:12;;;;;;;11.15;5.10;;;12.30;99.90;;;;;;4935698;29;20047;-80
2022/01/02 10:37:39;;;;;;;9.75;4.78;;;12.30;99.90;;;;;;4919619;29;20082;-81
2022/01/02 10:40:22;;;;;;;18.58;5.13;;;12.30;99.90;;;;;;4935028;29;20047;-81
2022/01/02 10:42:47;;;;;;;10.07;4.70;;;12.40;99.90;;;;;;4919329;29;20103;-81
2022/01/02 10:45:33;;;;;;;13.27;5.55;;;12.40;99.90;;;;;;4935087;29;20055;-81
2022/01/02 10:47:58;;;;;;;9.15;4.93;;;12.40;99.90;;;;;;4934791;29;20047;-80
2022/01/02 10:50:24;;;;;;;13.15;5.00;;;12.50;99.90;;;;;;4934846;29;20055;-81
2022/01/02 10:52:50;;;;;;;14.20;5.13;;;12.40;99.90;;;;;;4934469;29;20042;-80
2022/01/02 10:55:20;;;;;;;11.13;4.50;;;12.40;99.90;;;;;;4934861;29;20063;-81
2022/01/02 10:57:49;;;;;;;16.73;5.70;;;12.40;99.90;;;;;;4934421;29;20048;-80
2022/01/02 11:00:19;;;;;;;12.68;5.60;;;12.50;99.90;;;;;;4934266;29;20560;-80
2022/01/02 11:02:46;;;;;;;15.60;5.18;;;12.40;99.90;;;;;;4934527;29;20044;-81
2022/01/02 11:05:14;;;;;;;11.95;5.30;;;12.40;99.90;;;;;;4934484;29;20043;-81
2022/01/02 11:07:42;;;;;;;12.27;5.43;;;12.40;99.90;;;;;;4934181;29;20055;-80
2022/01/02 11:10:13;;;;;;;13.40;5.35;;;12.30;99.90;;;;;;4950299;29;20114;-81
2022/01/02 11:12:40;;;;;;;8.90;3.97;;;12.40;99.90;;;;;;4934352;29;20088;-81
2022/01/02 11:15:11;;;;;;;11.32;4.63;;;12.30;99.90;;;;;;4934196;29;20079;-81
2022/01/02 11:17:37;;;;;;;14.13;5.03;;;12.30;99.90;;;;;;4934166;29;20087;-81
2022/01/02 11:20:11;;;;;;;10.30;4.38;;;12.30;99.90;;;;;;4950116;29;20071;-80
2022/01/02 11:23:23;;;;;;;13.32;5.53;;;12.30;99.90;;;;;;4934740;29;20120;-81
2022/01/02 11:26:06;;;;;;;11.10;4.45;;;12.30;99.90;;;;;;4950736;29;20169;-81
2022/01/02 11:28:47;;;;;;;10.07;3.90;;;12.30;99.90;;;;;;4934124;29;20482;-81
2022/01/02 11:31:31;;;;;;;12.52;4.00;;;12.20;99.90;;;;;;4934157;29;20048;-81
2022/01/02 11:34:08;;;;;;;14.20;4.50;;;12.20;99.90;;;;;;4918557;29;20070;-80
2022/01/02 11:36:35;;;;;;;11.77;4.25;;;12.20;99.90;;;;;;4879661;29;20053;-79
2022/01/02 11:39:09;;;;;;;15.90;4.20;;;12.10;99.90;;;;;;4921464;29;20111;-80
2022/01/02 11:41:50;;;;;;;9.15;3.53;;;12.20;99.90;;;;;;4933966;29;20059;-83
2022/01/02 11:44:21;;;;;;;13.18;4.10;;;12.10;99.90;;;;;;4934140;29;20054;-79
2022/01/02 11:46:53;;;;;;;13.18;3.72;;;12.10;99.90;;;;;;4934091;29;20051;-80
2022/01/02 11:49:25;;;;;;;11.55;3.55;;;12.10;99.90;;;;;;4933875;29;20031;-80
2022/01/02 11:51:54;;;;;;;12.00;3.40;;;12.00;99.90;;;;;;4933888;29;20126;-80
2022/01/02 11:56:57;;;;;;;15.02;3.00;;;12.00;99.90;;;;;;4949937;29;20443;-81
2022/01/02 11:59:44;;;;;;;11.90;3.30;;;11.90;99.90;;;;;;4933951;29;20058;-80
2022/01/02 12:02:12;;;;;;;11.90;2.90;;;11.90;99.90;;;;;;4918131;29;20044;-81
2022/01/02 12:07:33;;;;;;;17.27;3.60;;;11.80;99.90;;;;;;4945025;29;20553;-80
2022/01/02 12:10:16;;;;;;;16.45;3.30;;;11.80;99.90;;;;;;4937803;29;20150;-78
2022/01/02 12:12:58;;;;;;;22.10;4.07;;;11.90;99.90;;;;;;4921857;29;20549;-80
2022/01/02 12:15:35;;;;;;;16.70;3.53;;;11.90;99.90;;;;;;4938796;29;20044;-78
2022/01/02 12:18:11;;;;;;;16.67;3.55;;;11.80;99.90;;;;;;4953492;29;20075;-81
2022/01/02 12:20:52;;;;;;;15.57;3.13;;;11.80;99.90;;;;;;4937382;29;20051;-74
2022/01/02 12:23:33;;;;;;;13.65;3.40;;;12.00;99.90;;;;;;4937432;29;20060;-77
2022/01/02 12:25:59;;;;;;;14.75;3.80;;;12.10;99.90;;;;;;4938845;29;20043;-80
2022/01/02 12:28:25;;;;;;;16.15;3.33;;;12.20;99.90;;;;;;4937233;29;20039;-78
2022/01/02 12:30:52;;;;;;;14.32;3.75;;;12.20;99.90;;;;;;4937579;29;20048;-78
2022/01/02 12:33:25;;;;;;;19.70;4.47;;;12.20;99.90;;;;;;4937280;29;20042;-83
2022/01/02 12:35:51;;;;;;;18.15;2.97;;;12.30;99.90;;;;;;4937221;29;20047;-78
2022/01/02 12:38:17;;;;;;;18.70;3.22;;;12.20;99.90;;;;;;4921360;29;20047;-82
2022/01/02 12:40:43;;;;;;;14.27;2.97;;;12.10;99.90;;;;;;4937352;29;20537;-83
2022/01/02 12:43:09;;;;;;;17.70;4.45;;;12.10;99.90;;;;;;4921214;29;20163;-78
2022/01/02 12:45:35;;;;;;;15.93;3.97;;;12.00;99.90;;;;;;4936980;29;20052;-79
2022/01/02 12:48:01;;;;;;;22.75;3.95;;;12.00;99.90;;;;;;4938416;29;20050;-78
2022/01/02 12:50:29;;;;;;;17.10;3.28;;;12.00;99.90;;;;;;4936268;29;20044;-81
2022/01/02 12:52:56;;;;;;;14.88;3.30;;;12.10;99.90;;;;;;4937301;29;20036;-79
2022/01/02 12:55:22;;;;;;;11.63;3.40;;;12.00;99.90;;;;;;4937171;29;20040;-81
2022/01/02 12:57:48;;;;;;;18.60;4.60;;;12.00;99.90;;;;;;4938314;29;20039;-78
2022/01/02 13:00:14;;;;;;;13.70;3.33;;;12.00;99.90;;;;;;4938111;29;20565;-77
2022/01/02 13:02:40;;;;;;;17.27;4.07;;;12.00;99.90;;;;;;4936516;29;20118;-78
2022/01/02 13:05:06;;;;;;;28.50;5.18;;;11.90;99.90;;;;;;4936405;29;20044;-77
2022/01/02 13:07:37;;;;;;;19.33;3.78;;;11.90;99.90;;;;;;4936618;29;20063;-79
2022/01/02 13:10:15;;;;;;;20.02;4.20;;;11.80;99.90;;;;;;4936603;29;20085;-83
2022/01/02 13:12:44;;;;;;;22.10;3.50;;;11.70;99.90;;;;;;4936769;29;20051;-82
2022/01/02 13:15:11;;;;;;;21.30;3.72;;;11.80;99.90;;;;;;4920356;29;20044;-81
2022/01/02 13:17:43;;;;;;;21.60;3.88;;;11.60;99.90;;;;;;4937613;29;20119;-82
2022/01/02 13:20:17;;;;;;;16.15;3.20;;;11.60;99.90;;;;;;4937975;29;20118;-79
2022/01/02 13:22:48;;;;;;;15.10;2.92;;;11.60;99.90;;;;;;4920278;29;20099;-79
2022/01/02 13:25:42;;;;;;;14.32;2.67;;;11.60;99.90;;;;;;4936118;29;20047;-79
2022/01/02 13:28:13;;;;;;;21.15;3.55;;;11.50;99.90;;;;;;4920141;29;20035;-84
2022/01/02 13:30:48;;;;;;;16.85;3.10;;;11.50;99.90;;;;;;4952501;28;20439;-82
2022/01/02 13:33:19;;;;;;;15.10;2.92;;;11.40;99.90;;;;;;4936605;29;20075;-81
2022/01/02 13:35:45;;;;;;;19.65;3.78;;;11.40;99.90;;;;;;4935525;29;20580;-82
2022/01/02 13:38:11;;;;;;;13.65;2.45;;;11.40;99.90;;;;;;4952292;29;20078;-83
2022/01/02 13:40:38;;;;;;;16.58;3.53;;;11.30;99.90;;;;;;4936232;29;20126;-83
2022/01/02 13:43:12;;;;;;;9.60;2.67;;;11.30;99.90;;;;;;4937648;29;20107;-80
2022/01/02 13:45:40;;;;;;;14.65;2.83;;;11.30;99.90;;;;;;4936693;29;20454;-79
2022/01/02 13:48:08;;;;;;;13.52;3.05;;;11.30;99.90;;;;;;4935658;29;20039;-82
2022/01/02 13:50:39;;;;;;;12.52;2.50;;;11.50;99.90;;;;;;4920024;29;20036;-81
2022/01/02 13:53:17;;;;;;;12.02;2.42;;;11.70;99.90;;;;;;4937073;29;20071;-81
2022/01/02 13:55:45;;;;;;;10.77;2.28;;;11.60;99.90;;;;;;4935835;29;20534;-80
2022/01/02 13:58:28;;;;;;;12.02;1.88;;;11.50;99.90;;;;;;4937166;29;20046;-78
2022/01/02 14:00:59;;;;;;;14.68;2.47;;;11.30;99.90;;;;;;4919452;29;20051;-81
2022/01/02 14:03:39;;;;;;;14.30;2.35;;;11.20;99.90;;;;;;4919604;29;20091;-85
2022/01/02 14:06:10;;;;;;;7.50;1.90;;;11.10;99.90;;;;;;4935449;29;20039;-76
2022/01/02 14:08:46;;;;;;;11.15;2.20;;;11.10;99.90;;;;;;4935469;29;20062;-82
2022/01/02 14:11:18;;;;;;;13.63;1.90;;;11.00;99.90;;;;;;4935431;29;20050;-80
2022/01/02 14:13:53;;;;;;;9.90;2.03;;;11.00;99.90;;;;;;4935169;29;20047;-83
2022/01/02 14:19:02;;;;;;;16.30;2.95;;;11.00;99.90;;;;;;4935419;29;20056;-83
2022/01/02 14:21:28;;;;;;;21.77;2.67;;;11.00;99.90;;;;;;4935114;29;20043;-79
2022/01/02 14:23:54;;;;;;;8.23;1.80;;;10.90;99.90;;;;;;4937024;29;20055;-81
2022/01/02 14:26:22;;;;;;;13.13;1.98;;;10.90;99.90;;;;;;4937932;29;20378;-74
2022/01/02 14:28:54;;;;;;;12.73;2.63;;;10.90;99.90;;;;;;4945231;29;20036;-79
2022/01/02 14:31:19;;;;;;;13.63;2.42;;;10.90;99.90;;;;;;4927045;29;20083;-76
2022/01/02 14:33:45;;;;;;;10.82;2.10;;;10.80;99.90;;;;;;4937203;29;20123;-81
2022/01/02 14:36:11;;;;;;;13.88;3.03;;;10.80;99.90;;;;;;4936008;29;20035;-79
2022/01/02 14:38:36;;;;;;;15.38;2.47;;;10.80;99.90;;;;;;4935773;29;20126;-80
2022/01/02 14:41:02;;;;;;;9.48;2.00;;;10.80;99.90;;;;;;4919297;29;20047;-79
2022/01/02 14:43:27;;;;;;;16.45;2.40;;;10.80;99.90;;;;;;4934935;29;20039;-81
2022/01/02 14:45:53;;;;;;;14.55;2.60;;;10.80;99.90;;;;;;4934793;29;20103;-80
2022/01/02 14:48:22;;;;;;;18.45;3.80;;;10.80;99.90;;;;;;4934586;29;20374;-79
2022/01/02 14:50:48;;;;;;;19.50;3.67;;;10.80;99.90;;;;;;4934725;29;20052;-80
2022/01/02 14:53:14;;;;;;;18.30;2.72;;;10.80;99.90;;;;;;4934538;29;20043;-77
2022/01/02 14:55:40;;;;;;;18.27;3.47;;;10.80;99.90;;;;;;4934741;29;20047;-72
2022/01/02 14:58:05;;;;;;;14.98;2.40;;;10.70;99.90;;;;;;4934703;29;20533;-78
2022/01/02 15:00:31;;;;;;;14.00;2.28;;;10.70;99.90;;;;;;4934053;29;20036;-75
2022/01/02 15:02:56;;;;;;;18.33;3.88;;;10.70;99.90;;;;;;4936252;29;20043;-75
2022/01/02 15:05:22;;;;;;;16.50;3.53;;;10.70;99.90;;;;;;4934434;29;20039;-80
2022/01/02 15:07:48;;;;;;;20.98;3.35;;;10.70;99.90;;;;;;4935818;29;20036;-79
2022/01/02 15:10:14;;;;;;;21.73;3.15;;;10.70;99.90;;;;;;4934383;29;20048;-76
2022/01/02 16:56:58;;;;;;;;;;;9.80;99.90;;;;;;5067396;28;20320;-76
2022/01/02 16:59:24;;;;;;;8.43;1.65;;;9.80;99.90;;;;;;5048208;28;19916;-82
2022/01/02 17:01:49;;;;;;;10.02;1.85;;;9.80;99.90;;;;;;5048619;28;20492;-81
2022/01/02 17:04:15;;;;;;;11.15;2.40;;;9.90;99.90;;;;;;5048525;28;20047;-79
2022/01/02 17:06:41;;;;;;;8.98;1.92;;;9.90;99.90;;;;;;5048109;28;20048;-78
2022/01/02 17:09:06;;;;;;;12.13;2.15;;;9.90;99.90;;;;;;5048197;28;20547;-79
2022/01/02 17:11:34;;;;;;;13.63;2.08;;;9.90;99.90;;;;;;5047999;28;20085;-81
2022/01/02 17:14:00;;;;;;;9.10;1.98;;;9.90;99.90;;;;;;5047699;28;20574;-78
2022/01/02 17:16:26;;;;;;;13.95;4.90;;;9.90;99.90;;;;;;5047239;28;20041;-81
2022/01/02 17:18:52;;;;;;;8.30;2.03;;;9.90;99.90;;;;;;5047171;28;20085;-77
2022/01/02 17:21:17;;;;;;;13.77;3.08;;;9.90;99.90;;;;;;5030261;28;20082;-79
2022/01/02 17:23:44;;;;;;;12.65;3.75;;;9.90;99.90;;;;;;5030459;28;20037;-80
2022/01/02 17:26:10;;;;;;;13.32;2.97;;;9.90;99.90;;;;;;5047313;28;20053;-77
2022/01/02 17:28:35;;;;;;;12.85;3.47;;;10.00;99.90;;;;;;5047087;28;20045;-77
2022/01/02 17:31:01;;;;;;;11.88;2.35;;;10.00;99.90;;;;;;5046695;28;20344;-78
2022/01/02 17:33:27;;;;;;;16.10;3.13;;;10.00;99.90;;;;;;5030580;28;20040;-82
2022/01/02 17:35:53;;;;;;;15.57;4.15;;;10.00;99.90;;;;;;5030300;28;20166;-86
2022/01/02 17:38:19;;;;;;;12.77;2.45;;;10.00;99.90;;;;;;5046931;28;20040;-76
2022/01/02 17:40:45;;;;;;;12.52;2.30;;;10.00;99.90;;;;;;5065259;28;20047;-80
2022/01/02 17:43:11;;;;;;;17.58;3.53;;;10.00;99.90;;;;;;5046924;28;20505;-81
2022/01/02 17:45:38;;;;;;;13.45;3.00;;;10.00;99.90;;;;;;5030536;28;20037;-78
2022/01/02 17:48:04;;;;;;;12.50;3.60;;;10.00;99.90;;;;;;5046759;28;20093;-80
2022/01/02 17:50:30;;;;;;;13.13;2.63;;;10.00;99.90;;;;;;5047079;28;20044;-79
2022/01/02 17:52:56;;;;;;;11.15;2.22;;;10.00;99.90;;;;;;5046453;28;20480;-79
2022/01/02 17:55:21;;;;;;;13.15;2.28;;;9.90;99.90;;;;;;5046501;28;20085;-79
2022/01/02 17:57:48;;;;;;;15.52;3.00;;;10.00;99.90;;;;;;5047030;28;20033;-78
2022/01/02 18:00:15;;;;;;;12.30;2.78;;;10.00;99.90;;;;;;5004058;28;20072;-78
2022/01/02 18:02:42;;;;;;;12.63;2.35;;;9.90;99.90;;;;;;4962526;28;20429;-79
2022/01/02 18:05:09;;;;;;;8.40;2.63;;;9.90;99.90;;;;;;4998389;28;20044;-79
2022/01/02 18:07:35;;;;;;;12.52;2.78;;;9.90;99.90;;;;;;5037399;28;20471;-80
2022/01/02 18:10:08;;;;;;;15.35;2.95;;;9.90;99.90;;;;;;5031450;28;20049;-81
2022/01/02 18:12:37;;;;;;;14.90;2.72;;;9.90;99.90;;;;;;5013772;28;20136;-81
2022/01/02 18:15:05;;;;;;;13.00;2.55;;;9.80;99.90;;;;;;5013549;28;20045;-81
2022/01/02 18:17:33;;;;;;;14.13;3.30;;;9.80;99.90;;;;;;4997082;28;20037;-81
2022/01/02 18:20:00;;;;;;;9.25;2.92;;;9.80;99.90;;;;;;5013218;28;20038;-81
2022/01/02 18:22:26;;;;;;;16.27;2.70;;;9.70;99.90;;;;;;5013669;28;20066;-80
2022/01/02 18:24:54;;;;;;;12.95;2.92;;;9.80;99.90;;;;;;5013301;28;20059;-81
2022/01/02 18:27:21;;;;;;;16.80;2.72;;;9.80;99.90;;;;;;4997094;28;20053;-81
2022/01/02 18:29:49;;;;;;;22.83;3.55;;;9.70;99.90;;;;;;5013494;28;20053;-85
2022/01/02 18:32:18;;;;;;;18.85;3.72;;;9.80;99.90;;;;;;5013066;28;20056;-80
2022/01/02 18:34:44;;;;;;;19.67;3.75;;;9.70;99.90;;;;;;5013408;28;20037;-80
2022/01/02 18:37:11;;;;;;;16.85;4.78;;;9.70;99.90;;;;;;4996900;28;20503;-81
2022/01/02 18:39:37;;;;;;;15.70;3.95;;;9.70;99.90;;;;;;5045143;27;20043;-81
2022/01/02 18:42:03;;;;;;;19.10;3.45;;;9.80;99.90;;;;;;5076826;27;20119;-81
2022/01/02 18:44:29;;;;;;;19.15;3.22;;;9.80;99.90;;;;;;5075789;27;20574;-81
2022/01/02 18:46:55;;;;;;;20.10;3.67;;;9.80;99.90;;;;;;5068438;27;20483;-81
2022/01/02 18:49:20;;;;;;;19.02;3.58;;;9.90;99.90;;;;;;5075851;27;20057;-81
2022/01/02 18:51:48;;;;;;;22.20;4.10;;;9.90;99.90;;;;;;5076004;27;20060;-81
2022/01/02 18:54:14;;;;;;;16.40;3.40;;;10.00;99.90;;;;;;5075477;27;20048;-81
2022/01/02 18:56:40;;;;;;;21.02;3.83;;;10.00;99.90;;;;;;5071143;27;20377;-81
2022/01/02 18:59:06;;;;;;;28.73;3.70;;;10.00;99.90;;;;;;5060646;27;20044;-81
2022/01/02 19:01:32;;;;;;;25.40;4.40;;;10.00;99.90;;;;;;5057398;28;20033;-80
2022/01/02 19:03:58;;;;;;;19.52;3.88;;;10.00;99.90;;;;;;5042052;28;20388;-81
2022/01/02 19:06:24;;;;;;;20.75;3.88;;;10.10;99.90;;;;;;5038642;28;20396;-81
2022/01/02 19:08:50;;;;;;;28.77;3.42;;;10.00;99.90;;;;;;5038921;27;20080;-81
2022/01/02 19:11:17;;;;;;;29.10;4.38;;;10.00;99.90;;;;;;5075138;27;20068;-80
2022/01/02 19:13:43;;;;;;;20.27;3.28;;;10.00;99.90;;;;;;5063906;28;20068;-80
2022/01/02 19:16:10;;;;;;;21.13;3.85;;;10.00;99.90;;;;;;5075322;27;20499;-81
2022/01/02 19:18:39;;;;;;;24.75;4.22;;;10.00;99.90;;;;;;5049218;28;20073;-81
2022/01/02 19:21:05;;;;;;;22.08;4.38;;;10.10;99.90;;;;;;5050303;28;20072;-81
2022/01/02 19:23:31;;;;;;;26.02;3.33;;;10.10;99.90;;;;;;5118891;27;20096;-81
2022/01/02 19:25:57;;;;;;;17.55;2.85;;;10.10;99.90;;;;;;5119744;27;20041;-81
2022/01/02 19:28:23;;;;;;;29.88;3.67;;;10.10;99.90;;;;;;5101827;28;20075;-80
2022/01/02 19:30:48;;;;;;;25.20;4.07;;;10.10;99.90;;;;;;5118806;27;20084;-79
2022/01/02 19:33:14;;;;;;;30.77;3.60;;;10.10;99.90;;;;;;5118660;27;20049;-81
2022/01/02 19:35:40;;;;;;;17.83;3.88;;;10.20;99.90;;;;;;5119183;27;20052;-80